Terminal Aerodrome Forecast
Issued by NWS

Home | Current Version | Previous Version | Text Only | Print | Product List | Glossary On
Versions: 1 2 3 4 5 6 7 8 9 10 11 12 13 14 15 16 17 18 19 20 21 22 23 24 25 26 27
000
FTUS46 KMTR 261221 AAA
TAFSFO
TAF AMD
KSFO 261221Z 2612/2718 27005KT P6SM FEW015 SCT017 SCT200
      TEMPO 2613/2617 BKN017
     FM261700 28007KT P6SM FEW020 FEW200
     FM262000 30014KT P6SM FEW020
     FM270400 29011KT P6SM SCT020
     FM270800 27008KT P6SM BKN020
     FM271700 26008KT P6SM SCT020=

USA.gov is the U.S. government's official web portal to all federal, state and local government web resources and services.